createdAt,value
2022-08-05T00:00:16.591Z,18.82
2022-08-05T00:02:51.624Z,18.74
2022-08-05T00:06:02.959Z,18.76
2022-08-05T00:08:19.831Z,18.79
2022-08-05T00:11:00.489Z,18.71
2022-08-05T00:13:38.334Z,18.71
2022-08-05T00:16:09.060Z,18.70
2022-08-05T00:18:37.897Z,18.61
2022-08-05T00:21:08.257Z,18.62
2022-08-05T00:23:45.956Z,18.62
2022-08-05T00:26:16.291Z,18.61
2022-08-05T00:28:45.871Z,18.64
2022-08-05T00:31:14.185Z,18.57
2022-08-05T00:34:55.989Z,18.56
2022-08-05T00:37:13.025Z,18.53
2022-08-05T00:39:19.732Z,18.56
2022-08-05T00:41:51.947Z,18.47
2022-08-05T00:44:30.927Z,18.49
2022-08-05T00:47:03.933Z,18.52
2022-08-05T00:49:51.033Z,18.51
2022-08-05T00:52:28.761Z,18.48
2022-08-05T00:54:58.358Z,18.45
2022-08-05T00:57:31.849Z,18.49
2022-08-05T01:00:14.453Z,18.46
2022-08-05T01:02:44.983Z,18.44
2022-08-05T01:05:12.769Z,18.46
2022-08-05T01:08:39.819Z,18.39
2022-08-05T01:10:36.155Z,18.43
2022-08-05T01:13:19.482Z,18.42
2022-08-05T01:15:56.778Z,18.33
2022-08-05T01:18:33.559Z,18.34
2022-08-05T01:21:12.844Z,18.32
2022-08-05T01:24:14.120Z,18.33
2022-08-05T01:27:01.228Z,18.33
2022-08-05T01:29:52.702Z,18.28
2022-08-05T01:32:27.732Z,18.28
2022-08-05T01:35:00.735Z,18.27
2022-08-05T01:37:36.989Z,18.28
2022-08-05T01:40:17.829Z,18.15
2022-08-05T01:42:47.377Z,18.14
2022-08-05T01:45:17.062Z,18.13
2022-08-05T01:47:48.422Z,18.10
2022-08-05T01:50:28.380Z,18.10
2022-08-05T01:53:01.170Z,18.07
2022-08-05T01:55:36.135Z,18.03
2022-08-05T01:58:13.082Z,18.05
2022-08-05T02:00:49.084Z,18.01
2022-08-05T02:03:29.273Z,18.02
2022-08-05T02:06:03.786Z,18.00
2022-08-05T02:08:57.935Z,17.99
2022-08-05T02:11:33.985Z,18.04
2022-08-05T02:14:12.455Z,17.99
2022-08-05T02:16:52.761Z,17.89
2022-08-05T02:19:34.326Z,17.91
2022-08-05T02:22:05.357Z,17.86
2022-08-05T02:24:37.732Z,17.79
2022-08-05T02:27:10.565Z,17.78
2022-08-05T02:29:59.216Z,17.58
2022-08-05T02:32:32.283Z,17.44
2022-08-05T02:35:09.816Z,17.47
2022-08-05T02:37:46.422Z,17.50
2022-08-05T02:40:17.262Z,17.52
2022-08-05T02:42:52.623Z,17.52
2022-08-05T02:45:24.482Z,17.53
2022-08-05T02:48:06.480Z,17.55
2022-08-05T02:50:43.661Z,17.61
2022-08-05T02:53:19.095Z,17.63
2022-08-05T02:55:59.510Z,17.62
2022-08-05T02:58:30.927Z,17.73
2022-08-05T03:01:02.053Z,17.80
2022-08-05T03:03:34.062Z,17.84
2022-08-05T03:06:55.753Z,17.87
2022-08-05T03:09:12.585Z,17.94
2022-08-05T03:11:56.621Z,18.02
2022-08-05T03:14:26.315Z,18.06
2022-08-05T03:16:54.110Z,18.06
2022-08-05T03:19:34.020Z,18.14
2022-08-05T03:22:04.969Z,18.20
2022-08-05T03:24:47.276Z,18.25
2022-08-05T03:27:20.771Z,18.33
2022-08-05T03:30:08.202Z,18.39
2022-08-05T03:32:38.171Z,18.48
2022-08-05T03:35:08.914Z,18.57
2022-08-05T03:37:45.693Z,18.62
2022-08-05T03:40:24.287Z,18.72
2022-08-05T03:42:53.004Z,18.77
2022-08-05T03:45:23.372Z,18.86
2022-08-05T03:47:51.484Z,18.91
2022-08-05T03:50:20.947Z,18.96
2022-08-05T03:55:34.498Z,19.01
2022-08-05T03:56:10.011Z,19.16
2022-08-05T03:58:44.937Z,19.27
2022-08-05T04:01:17.005Z,19.38
2022-08-05T04:04:09.179Z,19.44
2022-08-05T04:06:47.438Z,19.50
2022-08-05T04:09:20.254Z,19.69
2022-08-05T04:11:56.736Z,19.88
2022-08-05T04:14:29.409Z,20.01
2022-08-05T04:17:00.296Z,20.14
2022-08-05T04:19:29.140Z,20.19
2022-08-05T04:22:08.788Z,20.30
2022-08-05T04:24:43.905Z,20.41
2022-08-05T04:27:13.150Z,20.58
2022-08-05T04:29:44.043Z,20.71
2022-08-05T04:32:13.026Z,20.85
2022-08-05T04:34:43.252Z,20.91
2022-08-05T04:37:12.860Z,21.01
2022-08-05T04:39:40.641Z,21.12
2022-08-05T04:42:09.225Z,21.25
2022-08-05T04:44:37.803Z,21.41
2022-08-05T04:47:09.789Z,21.52
2022-08-05T04:50:01.369Z,21.63
2022-08-05T04:52:28.513Z,21.79
2022-08-05T04:54:56.998Z,21.91
2022-08-05T04:57:29.283Z,22.01
2022-08-05T05:00:05.753Z,22.10
2022-08-05T05:02:43.107Z,22.17
2022-08-05T05:05:16.877Z,22.21
2022-08-05T05:08:01.082Z,22.36
2022-08-05T05:10:33.263Z,22.49
2022-08-05T05:13:03.965Z,22.66
2022-08-05T05:15:59.260Z,22.75
2022-08-05T05:18:31.384Z,22.86
2022-08-05T05:21:02.056Z,22.97
2022-08-05T05:24:02.139Z,23.05
2022-08-05T05:26:28.550Z,23.17
2022-08-05T05:29:02.309Z,23.32
2022-08-05T05:34:02.532Z,23.44
2022-08-05T05:36:30.706Z,23.52
2022-08-05T05:39:00.749Z,23.57
2022-08-05T05:41:40.793Z,23.69
2022-08-05T05:44:35.963Z,23.75
2022-08-05T05:46:58.432Z,23.89
2022-08-05T05:49:33.468Z,24.01
2022-08-05T05:52:05.998Z,24.09
2022-08-05T05:54:50.262Z,24.20
2022-08-05T05:57:19.689Z,24.19
2022-08-05T05:59:47.361Z,24.18
2022-08-05T06:02:16.887Z,24.23
2022-08-05T06:04:49.140Z,24.33
2022-08-05T06:07:17.133Z,24.41
2022-08-05T06:10:01.695Z,24.49
2022-08-05T06:12:34.383Z,24.59
2022-08-05T06:15:16.199Z,24.71
2022-08-05T06:17:53.093Z,24.74
2022-08-05T06:20:22.530Z,24.84
2022-08-05T06:22:50.493Z,24.88
2022-08-05T06:25:25.165Z,25.01
2022-08-05T06:28:12.622Z,25.06
2022-08-05T06:30:49.186Z,25.19
2022-08-05T06:33:19.408Z,25.24
2022-08-05T06:36:07.576Z,25.32
2022-08-05T06:38:38.166Z,25.18
2022-08-05T06:41:16.329Z,25.45
2022-08-05T06:43:59.831Z,25.48
2022-08-05T06:46:29.821Z,25.54
2022-08-05T06:48:59.318Z,25.65
2022-08-05T06:51:30.968Z,25.85
2022-08-05T06:54:00.169Z,25.85
2022-08-05T06:56:33.903Z,25.81
2022-08-05T06:59:03.684Z,25.71
2022-08-05T07:01:36.412Z,25.90
2022-08-05T07:04:04.869Z,25.97
2022-08-05T07:06:32.539Z,26.03
2022-08-05T07:09:00.300Z,26.22
2022-08-05T07:11:37.017Z,26.26
2022-08-05T07:14:06.958Z,26.43
2022-08-05T07:18:00.303Z,26.56
2022-08-05T07:20:10.656Z,26.55
2022-08-05T07:22:20.182Z,26.71
2022-08-05T07:24:52.663Z,26.93
2022-08-05T07:27:23.360Z,27.02
2022-08-05T07:30:23.888Z,26.85
2022-08-05T07:32:46.265Z,26.48
2022-08-05T07:36:03.869Z,26.30
2022-08-05T07:38:12.284Z,26.14
2022-08-05T07:40:55.694Z,25.98
2022-08-05T07:43:31.076Z,25.89
2022-08-05T07:45:59.026Z,25.81
2022-08-05T07:49:02.440Z,25.86
2022-08-05T07:51:23.863Z,26.26
2022-08-05T07:54:02.587Z,26.13
2022-08-05T07:57:01.237Z,25.92
2022-08-05T07:59:23.263Z,25.74
2022-08-05T08:02:07.286Z,25.52
2022-08-05T08:04:45.119Z,25.48
2022-08-05T08:07:13.732Z,25.40
2022-08-05T08:09:42.714Z,25.39
2022-08-05T08:12:27.453Z,25.52
2022-08-05T08:15:03.645Z,26.06
2022-08-05T08:17:32.519Z,26.32
2022-08-05T08:20:00.674Z,26.66
2022-08-05T08:22:52.050Z,27.05
2022-08-05T08:25:27.092Z,27.18
2022-08-05T08:28:11.347Z,27.08
2022-08-05T08:30:49.937Z,27.26
2022-08-05T08:33:19.114Z,27.15
2022-08-05T08:35:53.870Z,26.87
2022-08-05T08:38:37.797Z,26.59
2022-08-05T08:41:07.714Z,26.42
2022-08-05T08:45:19.741Z,26.23
2022-08-05T08:46:29.697Z,26.04
2022-08-05T08:49:17.452Z,25.90
2022-08-05T08:52:03.025Z,25.73
2022-08-05T08:54:36.583Z,25.62
2022-08-05T08:57:06.075Z,25.44
2022-08-05T08:59:41.891Z,25.40
2022-08-05T09:02:26.876Z,25.24
2022-08-05T09:05:16.111Z,25.21
2022-08-05T09:07:57.312Z,25.20
2022-08-05T09:10:27.823Z,25.25
2022-08-05T09:13:04.994Z,25.56
2022-08-05T09:15:36.819Z,25.95
2022-08-05T09:18:08.847Z,26.09
2022-08-05T09:20:38.206Z,26.06
2022-08-05T09:23:18.734Z,26.16
2022-08-05T09:26:02.122Z,26.20
2022-08-05T09:28:33.849Z,26.19
2022-08-05T09:31:23.255Z,26.14
2022-08-05T09:33:56.183Z,26.12
2022-08-05T09:36:27.718Z,26.22
2022-08-05T09:39:03.068Z,26.61
2022-08-05T09:41:33.212Z,26.67
2022-08-05T09:44:07.007Z,26.46
2022-08-05T09:46:35.256Z,26.41
2022-08-05T09:49:07.832Z,26.47
2022-08-05T09:51:48.973Z,26.49
2022-08-05T09:54:29.942Z,26.49
2022-08-05T09:57:01.548Z,26.35
2022-08-05T09:59:37.053Z,26.23
2022-08-05T10:02:05.209Z,26.56
2022-08-05T10:04:38.236Z,26.95
2022-08-05T10:07:20.051Z,27.11
2022-08-05T10:10:04.316Z,27.27
2022-08-05T10:12:50.014Z,27.34
2022-08-05T10:15:21.645Z,26.87
2022-08-05T10:18:12.743Z,26.78
2022-08-05T10:20:44.454Z,26.65
2022-08-05T10:23:34.443Z,26.53
2022-08-05T10:26:08.258Z,26.41
2022-08-05T10:28:43.530Z,26.16
2022-08-05T10:32:51.905Z,26.12
2022-08-05T10:34:02.224Z,26.08
2022-08-05T10:36:31.436Z,25.64
2022-08-05T10:39:10.068Z,25.49
2022-08-05T10:41:47.170Z,25.07
2022-08-05T10:44:18.419Z,24.98
2022-08-05T10:46:51.070Z,24.86
2022-08-05T10:49:26.627Z,24.72
2022-08-05T10:51:59.926Z,24.83
2022-08-05T10:54:56.168Z,24.84
2022-08-05T10:57:26.256Z,24.65
2022-08-05T11:00:17.934Z,24.70
2022-08-05T11:03:23.380Z,24.60
2022-08-05T11:06:15.714Z,24.50
2022-08-05T11:09:45.116Z,24.45
2022-08-05T11:12:45.434Z,24.49
2022-08-05T11:15:24.404Z,24.51
2022-08-05T11:18:25.645Z,24.55
2022-08-05T11:20:54.218Z,24.53
2022-08-05T11:24:04.145Z,24.59
2022-08-05T11:26:28.247Z,24.67
2022-08-05T11:29:06.580Z,24.69
2022-08-05T11:31:57.500Z,24.78
2022-08-05T11:34:37.148Z,24.80
2022-08-05T11:37:55.145Z,24.86
2022-08-05T11:40:00.340Z,24.79
2022-08-05T11:42:33.011Z,24.74
2022-08-05T11:45:23.102Z,24.75
2022-08-05T11:47:57.935Z,24.78
2022-08-05T11:50:26.576Z,24.86
2022-08-05T11:52:57.904Z,24.91
2022-08-05T11:55:31.971Z,25.00
2022-08-05T11:58:10.648Z,25.19
2022-08-05T12:00:41.619Z,25.50
2022-08-05T12:03:16.557Z,25.92
2022-08-05T12:06:00.011Z,26.28
2022-08-05T12:08:27.833Z,26.52
2022-08-05T12:10:59.612Z,26.82
2022-08-05T12:13:48.593Z,27.05
2022-08-05T12:16:27.045Z,27.22
2022-08-05T12:18:55.722Z,27.35
2022-08-05T12:21:30.271Z,27.46
2022-08-05T12:24:05.002Z,27.63
2022-08-05T12:26:36.248Z,27.75
2022-08-05T12:29:05.990Z,27.87
2022-08-05T12:31:46.057Z,27.89
2022-08-05T12:34:20.488Z,28.00
2022-08-05T12:36:53.075Z,28.06
2022-08-05T12:39:21.068Z,28.13
2022-08-05T12:41:48.946Z,28.25
2022-08-05T12:44:21.573Z,28.33
2022-08-05T12:47:02.442Z,28.51
2022-08-05T12:50:02.244Z,28.58
2022-08-05T12:52:33.947Z,28.65
2022-08-05T12:55:17.040Z,28.74
2022-08-05T12:58:49.212Z,28.56
2022-08-05T13:02:04.062Z,28.63
2022-08-05T13:03:22.042Z,28.80
2022-08-05T13:05:50.752Z,28.80
2022-08-05T13:08:19.371Z,28.68
2022-08-05T13:10:50.139Z,28.45
2022-08-05T13:14:04.637Z,28.04
2022-08-05T13:16:15.380Z,27.29
2022-08-05T13:18:53.043Z,26.79
2022-08-05T13:21:27.810Z,25.70
2022-08-05T13:24:06.136Z,24.23
2022-08-05T13:26:36.857Z,23.58
2022-08-05T13:29:05.409Z,23.19
2022-08-05T13:32:03.900Z,22.72
2022-08-05T13:34:25.944Z,22.27
2022-08-05T13:36:54.306Z,22.10
2022-08-05T13:40:14.514Z,22.14
2022-08-05T13:42:14.757Z,22.19
2022-08-05T13:44:45.547Z,22.25
2022-08-05T13:47:35.281Z,22.32
2022-08-05T13:50:08.142Z,22.59
2022-08-05T13:52:39.276Z,22.64
2022-08-05T13:55:09.745Z,22.53
2022-08-05T13:57:48.509Z,22.50
2022-08-05T14:00:27.702Z,22.64
2022-08-05T14:02:56.493Z,22.83
2022-08-05T14:05:48.166Z,22.87
2022-08-05T14:08:20.748Z,22.94
2022-08-05T14:11:03.171Z,23.14
2022-08-05T14:13:43.796Z,23.29
2022-08-05T14:16:16.818Z,23.33
2022-08-05T14:18:45.015Z,23.32
2022-08-05T14:22:07.137Z,23.40
2022-08-05T14:24:02.019Z,23.42
2022-08-05T14:26:36.936Z,23.44
2022-08-05T14:29:16.606Z,23.48
2022-08-05T14:32:02.379Z,23.57
2022-08-05T14:34:35.670Z,23.70
2022-08-05T14:37:05.580Z,23.72
2022-08-05T14:39:49.573Z,23.72
2022-08-05T14:42:21.157Z,23.73
2022-08-05T14:44:50.142Z,23.79
2022-08-05T14:47:58.283Z,23.79
2022-08-05T14:50:18.514Z,23.68
2022-08-05T14:52:53.571Z,23.59
2022-08-05T14:55:38.451Z,23.58
2022-08-05T14:58:11.124Z,23.59
2022-08-05T15:00:59.309Z,23.62
2022-08-05T15:03:33.709Z,23.71
2022-08-05T15:06:13.634Z,23.83
2022-08-05T15:09:01.226Z,23.80
2022-08-05T15:11:52.706Z,23.84
2022-08-05T15:14:34.579Z,23.89
2022-08-05T15:17:09.933Z,24.05
2022-08-05T15:19:55.843Z,24.11
2022-08-05T15:22:26.847Z,24.19
2022-08-05T15:24:57.152Z,24.18
2022-08-05T15:27:25.434Z,24.21
2022-08-05T15:29:54.273Z,24.25
2022-08-05T15:32:27.405Z,24.22
2022-08-05T15:34:57.182Z,24.17
2022-08-05T15:38:33.159Z,24.17
2022-08-05T15:41:01.187Z,24.11
2022-08-05T15:43:10.812Z,23.97
2022-08-05T15:45:43.576Z,24.01
2022-08-05T15:48:14.572Z,24.00
2022-08-05T15:50:43.800Z,23.93
2022-08-05T15:53:13.476Z,24.01
2022-08-05T15:56:03.526Z,23.90
2022-08-05T15:58:35.752Z,23.90
2022-08-05T16:01:16.299Z,23.87
2022-08-05T16:03:50.277Z,23.84
2022-08-05T16:06:19.567Z,23.81
2022-08-05T16:08:50.946Z,23.79
2022-08-05T16:11:43.036Z,23.70
2022-08-05T16:14:17.066Z,23.69
2022-08-05T16:16:46.165Z,23.72
2022-08-05T16:19:25.368Z,23.77
2022-08-05T16:22:02.933Z,23.75
2022-08-05T16:24:39.956Z,23.75
2022-08-05T16:27:15.921Z,23.72
2022-08-05T16:29:50.200Z,23.74
2022-08-05T16:32:28.338Z,23.74
2022-08-05T16:34:57.386Z,23.65
2022-08-05T16:38:15.889Z,23.64
2022-08-05T16:40:28.759Z,23.63
2022-08-05T16:42:58.745Z,23.62
2022-08-05T16:46:07.276Z,23.60
2022-08-05T16:48:25.172Z,23.49
2022-08-05T16:50:54.073Z,23.51
2022-08-05T16:53:22.859Z,23.46
2022-08-05T16:55:59.669Z,23.31
2022-08-05T16:58:28.735Z,23.36
2022-08-05T17:00:57.572Z,23.33
2022-08-05T17:03:26.993Z,23.32
2022-08-05T17:05:59.319Z,23.31
2022-08-05T17:08:35.791Z,23.27
2022-08-05T17:11:16.574Z,23.22
2022-08-05T17:13:46.575Z,23.22
2022-08-05T17:16:33.392Z,23.21
2022-08-05T17:19:02.544Z,23.18
2022-08-05T17:21:35.549Z,23.11
2022-08-05T17:24:28.326Z,23.09
2022-08-05T17:26:51.958Z,23.05
2022-08-05T17:29:22.446Z,23.03
2022-08-05T17:31:58.246Z,23.00
2022-08-05T17:34:29.771Z,22.91
2022-08-05T17:37:00.040Z,22.86
2022-08-05T17:39:33.145Z,22.81
2022-08-05T17:42:19.190Z,22.79
2022-08-05T17:44:51.424Z,22.76
2022-08-05T17:47:21.884Z,22.76
2022-08-05T17:49:59.844Z,22.72
2022-08-05T17:52:32.967Z,22.61
2022-08-05T17:55:01.139Z,22.55
2022-08-05T17:57:31.393Z,22.52
2022-08-05T18:00:05.148Z,22.50
2022-08-05T18:02:34.366Z,22.46
2022-08-05T18:05:06.224Z,22.42
2022-08-05T18:07:41.562Z,22.36
2022-08-05T18:10:11.461Z,22.30
2022-08-05T18:12:42.073Z,22.41
2022-08-05T18:15:11.726Z,22.44
2022-08-05T18:18:00.240Z,22.43
2022-08-05T18:20:29.175Z,22.37
2022-08-05T18:25:39.135Z,22.18
2022-08-05T18:28:07.018Z,22.12
2022-08-05T18:30:40.358Z,22.07
2022-08-05T18:33:08.078Z,21.99
2022-08-05T18:35:59.682Z,21.94
2022-08-05T18:38:26.232Z,21.85
2022-08-05T18:41:53.167Z,21.83
2022-08-05T18:43:43.087Z,21.74
2022-08-05T18:46:20.141Z,21.64
2022-08-05T18:48:52.065Z,21.68
2022-08-05T18:52:04.543Z,21.65
2022-08-05T18:54:08.862Z,21.60
2022-08-05T18:56:38.062Z,21.54
2022-08-05T18:59:42.631Z,21.45
2022-08-05T19:01:57.286Z,21.41
2022-08-05T19:04:26.122Z,21.34
2022-08-05T19:06:54.688Z,21.35
2022-08-05T19:09:22.761Z,21.32
2022-08-05T19:12:00.114Z,21.29
2022-08-05T19:14:37.768Z,21.24
2022-08-05T19:17:18.246Z,21.22
2022-08-05T19:19:48.642Z,21.20
2022-08-05T19:22:17.658Z,21.04
2022-08-05T19:24:54.298Z,21.01
2022-08-05T19:27:27.740Z,21.00
2022-08-05T19:29:58.186Z,20.93
2022-08-05T19:32:27.796Z,20.89
2022-08-05T19:34:56.129Z,20.86
2022-08-05T19:37:30.002Z,20.86
2022-08-05T19:40:14.962Z,20.83
2022-08-05T19:43:05.541Z,20.79
2022-08-05T19:45:33.208Z,20.73
2022-08-05T19:48:06.824Z,20.63
2022-08-05T19:50:42.596Z,20.57
2022-08-05T19:53:10.941Z,20.52
2022-08-05T19:56:14.579Z,20.50
2022-08-05T19:58:28.920Z,20.52
2022-08-05T20:00:57.768Z,20.48
2022-08-05T20:03:27.505Z,20.50
2022-08-05T20:06:11.649Z,20.49
2022-08-05T20:08:43.859Z,20.51
2022-08-05T20:11:18.007Z,20.54
2022-08-05T20:13:58.617Z,20.56
2022-08-05T20:16:35.872Z,20.56
2022-08-05T20:19:06.499Z,20.58
2022-08-05T20:21:34.881Z,20.48
2022-08-05T20:24:06.934Z,20.37
2022-08-05T20:26:35.118Z,20.29
2022-08-05T20:29:02.783Z,20.29
2022-08-05T20:31:42.738Z,20.28
2022-08-05T20:34:20.014Z,20.25
2022-08-05T20:36:47.909Z,20.29
2022-08-05T20:39:16.459Z,20.22
2022-08-05T20:41:45.022Z,20.20
2022-08-05T20:44:19.243Z,20.13
2022-08-05T20:46:58.119Z,20.16
2022-08-05T20:49:27.427Z,20.12
2022-08-05T20:51:57.539Z,20.16
2022-08-05T20:54:26.065Z,20.13
2022-08-05T20:57:14.583Z,20.06
2022-08-05T20:59:46.148Z,19.96
2022-08-05T21:02:31.193Z,19.89
2022-08-05T21:05:02.293Z,19.87
2022-08-05T21:07:50.744Z,19.84
2022-08-05T21:10:18.133Z,19.82
2022-08-05T21:13:09.020Z,19.75
2022-08-05T21:15:34.185Z,19.62
2022-08-05T21:18:01.953Z,19.59
2022-08-05T21:20:32.811Z,19.65
2022-08-05T21:23:01.502Z,19.66
2022-08-05T21:25:34.007Z,19.62
2022-08-05T21:28:02.677Z,19.60
2022-08-05T21:30:30.464Z,19.59
2022-08-05T21:32:58.138Z,19.65
2022-08-05T21:35:29.929Z,19.61
2022-08-05T21:38:12.747Z,19.52
2022-08-05T21:40:41.570Z,19.48
2022-08-05T21:43:24.146Z,19.42
2022-08-05T21:45:56.467Z,19.39
2022-08-05T21:48:25.143Z,19.30
2022-08-05T21:50:54.494Z,19.39
2022-08-05T21:53:27.495Z,19.39
2022-08-05T21:56:05.441Z,19.37
2022-08-05T21:58:57.232Z,19.38
2022-08-05T22:01:25.955Z,19.36
2022-08-05T22:03:53.995Z,19.22
2022-08-05T22:06:35.263Z,19.16
2022-08-05T22:09:14.815Z,19.11
2022-08-05T22:11:43.726Z,19.13
2022-08-05T22:14:34.118Z,19.12
2022-08-05T22:17:05.368Z,19.07
2022-08-05T22:20:00.723Z,19.07
2022-08-05T22:22:26.875Z,19.08
2022-08-05T22:24:58.777Z,19.05
2022-08-05T22:28:09.029Z,19.04
2022-08-05T22:30:16.140Z,19.06
2022-08-05T22:32:45.070Z,19.09
2022-08-05T22:35:13.985Z,19.07
2022-08-05T22:37:59.353Z,18.99
2022-08-05T22:40:30.642Z,18.92
2022-08-05T22:42:58.592Z,18.92
2022-08-05T22:45:26.498Z,18.91
2022-08-05T22:47:55.427Z,18.89
2022-08-05T22:50:27.839Z,18.91
2022-08-05T22:52:57.069Z,18.81
2022-08-05T22:55:26.084Z,18.77
2022-08-05T22:57:55.465Z,18.83
2022-08-05T23:00:23.721Z,18.73
2022-08-05T23:02:52.212Z,18.74
2022-08-05T23:05:22.192Z,18.74
2022-08-05T23:07:50.722Z,18.67
2022-08-05T23:10:23.462Z,18.72
2022-08-05T23:12:54.966Z,18.74
2022-08-05T23:15:27.071Z,18.81
2022-08-05T23:18:01.233Z,18.80
2022-08-05T23:20:32.615Z,18.82
2022-08-05T23:23:00.725Z,18.78
2022-08-05T23:25:52.003Z,18.76
2022-08-05T23:28:28.722Z,18.64
2022-08-05T23:31:15.690Z,18.63
2022-08-05T23:34:04.226Z,18.59
2022-08-05T23:36:38.466Z,18.54
2022-08-05T23:39:07.801Z,18.58
2022-08-05T23:41:37.422Z,18.62
2022-08-05T23:44:09.051Z,18.70
2022-08-05T23:46:39.964Z,18.67
2022-08-05T23:49:16.773Z,18.78
2022-08-05T23:51:45.823Z,18.86
2022-08-05T23:54:25.155Z,18.87
2022-08-05T23:57:03.120Z,18.84
